createdAt,value
2022-11-14T00:01:13.574Z,7.93
2022-11-14T00:04:00.681Z,8.00
2022-11-14T00:06:47.475Z,8.00
2022-11-14T00:09:34.498Z,7.67
2022-11-14T00:12:21.364Z,8.57
2022-11-14T00:15:09.375Z,8.13
2022-11-14T00:17:57.424Z,9.80
2022-11-14T00:20:44.232Z,10.03
2022-11-14T00:23:31.305Z,9.97
2022-11-14T00:26:17.936Z,10.40
2022-11-14T00:29:05.310Z,10.13
2022-11-14T00:31:52.154Z,9.97
2022-11-14T00:34:40.695Z,10.13
2022-11-14T00:37:28.370Z,9.30
2022-11-14T00:40:15.898Z,8.90
2022-11-14T00:43:02.490Z,8.37
2022-11-14T00:45:50.646Z,8.00
2022-11-14T00:48:37.861Z,9.37
2022-11-14T00:51:26.410Z,9.07
2022-11-14T00:54:13.123Z,9.10
2022-11-14T00:57:00.117Z,9.73
2022-11-14T00:59:46.938Z,9.70
2022-11-14T01:02:33.723Z,8.70
2022-11-14T01:05:20.967Z,9.90
2022-11-14T01:08:09.345Z,10.20
2022-11-14T01:10:56.179Z,9.63
2022-11-14T01:13:43.090Z,8.70
2022-11-14T01:16:30.220Z,8.50
2022-11-14T01:19:17.326Z,8.90
2022-11-14T01:22:06.443Z,9.10
2022-11-14T01:24:55.231Z,8.63
2022-11-14T01:27:42.266Z,8.40
2022-11-14T01:30:28.948Z,8.10
2022-11-14T01:33:16.175Z,7.90
2022-11-14T01:36:03.269Z,9.53
2022-11-14T01:38:54.053Z,8.23
2022-11-14T01:41:42.058Z,8.80
2022-11-14T01:44:47.359Z,8.00
2022-11-14T01:47:34.856Z,8.10
2022-11-14T01:50:21.679Z,7.73
2022-11-14T01:53:08.330Z,7.37
2022-11-14T01:55:59.442Z,7.83
2022-11-14T01:58:53.314Z,8.20
2022-11-14T02:01:45.999Z,7.93
2022-11-14T02:04:36.683Z,9.20
2022-11-14T02:07:26.376Z,8.73
2022-11-14T02:10:19.398Z,8.10
2022-11-14T02:13:06.269Z,7.73
2022-11-14T02:15:55.267Z,8.40
2022-11-14T02:18:42.231Z,8.20
2022-11-14T02:21:30.479Z,8.83
2022-11-14T02:24:17.231Z,8.97
2022-11-14T02:27:07.342Z,9.03
2022-11-14T02:29:54.355Z,10.10
2022-11-14T02:35:48.044Z,10.03
2022-11-14T02:38:36.676Z,10.13
2022-11-14T02:41:24.437Z,9.60
2022-11-14T02:44:11.533Z,9.00
2022-11-14T02:46:58.185Z,8.53
2022-11-14T02:49:45.242Z,8.07
2022-11-14T02:52:31.997Z,7.77
2022-11-14T02:55:20.918Z,7.43
2022-11-14T02:58:08.003Z,7.70
2022-11-14T03:01:19.176Z,7.50
2022-11-14T03:04:02.139Z,7.87
2022-11-14T03:06:49.263Z,7.33
2022-11-14T03:09:35.948Z,7.10
2022-11-14T03:12:24.275Z,7.20
2022-11-14T03:15:12.210Z,6.83
2022-11-14T03:17:59.495Z,7.00
2022-11-14T03:20:46.324Z,7.20
2022-11-14T03:23:33.553Z,7.00
2022-11-14T03:26:20.548Z,6.60
2022-11-14T03:29:09.192Z,6.40
2022-11-14T03:31:56.313Z,5.47
2022-11-14T03:34:43.619Z,5.93
2022-11-14T03:37:30.655Z,5.60
2022-11-14T03:40:18.299Z,5.73
2022-11-14T03:43:04.965Z,4.80
2022-11-14T03:45:53.544Z,5.23
2022-11-14T03:48:40.514Z,5.37
2022-11-14T03:51:27.518Z,5.20
2022-11-14T03:54:14.653Z,6.17
2022-11-14T03:57:01.521Z,5.57
2022-11-14T03:59:48.250Z,5.90
2022-11-14T04:02:36.426Z,5.93
2022-11-14T04:05:23.092Z,6.03
2022-11-14T04:08:09.916Z,6.00
2022-11-14T04:10:56.920Z,4.83
2022-11-14T04:13:43.633Z,5.30
2022-11-14T04:16:31.024Z,4.97
2022-11-14T04:19:19.296Z,4.20
2022-11-14T04:22:06.495Z,3.83
2022-11-14T04:24:53.276Z,4.40
2022-11-14T04:27:40.705Z,5.40
2022-11-14T04:30:32.060Z,4.70
2022-11-14T04:33:21.547Z,5.23
2022-11-14T04:36:10.493Z,5.93
2022-11-14T04:38:57.539Z,5.57
2022-11-14T04:41:44.603Z,5.93
2022-11-14T04:44:31.543Z,5.40
2022-11-14T04:47:18.762Z,4.93
2022-11-14T04:50:06.315Z,4.87
2022-11-14T04:52:55.057Z,5.40
2022-11-14T04:55:41.706Z,4.20
2022-11-14T04:58:28.753Z,5.30
2022-11-14T05:01:16.652Z,5.07
2022-11-14T05:04:03.521Z,5.97
2022-11-14T05:06:51.509Z,5.70
2022-11-14T05:09:39.718Z,6.93
2022-11-14T05:12:26.978Z,6.23
2022-11-14T05:15:13.907Z,7.43
2022-11-14T05:18:00.670Z,8.37
2022-11-14T05:20:47.501Z,8.60
2022-11-14T05:23:35.634Z,8.37
2022-11-14T05:26:24.829Z,9.70
2022-11-14T05:29:11.488Z,8.67
2022-11-14T05:31:58.938Z,11.10
2022-11-14T05:34:45.532Z,9.53
2022-11-14T05:37:32.450Z,12.70
2022-11-14T05:40:19.553Z,10.40
2022-11-14T05:43:07.636Z,10.63
2022-11-14T05:45:54.358Z,13.10
2022-11-14T05:48:41.895Z,12.20
2022-11-14T05:51:29.335Z,9.63
2022-11-14T05:54:16.296Z,7.93
2022-11-14T05:57:02.969Z,7.53
2022-11-14T05:59:51.125Z,7.47
2022-11-14T06:02:37.996Z,6.77
2022-11-14T06:05:25.083Z,6.20
2022-11-14T06:08:12.139Z,6.47
2022-11-14T06:11:02.351Z,7.17
2022-11-14T06:13:49.344Z,6.67
2022-11-14T06:16:37.900Z,6.80
2022-11-14T06:19:25.180Z,6.20
2022-11-14T06:22:12.185Z,7.53
2022-11-14T06:24:58.936Z,7.03
2022-11-14T06:27:45.485Z,7.33
2022-11-14T06:30:32.127Z,7.60
2022-11-14T06:33:20.432Z,9.80
2022-11-14T06:36:09.723Z,8.93
2022-11-14T06:38:56.646Z,9.80
2022-11-14T06:41:43.670Z,12.60
2022-11-14T06:44:31.288Z,12.30
2022-11-14T06:47:18.314Z,13.60
2022-11-14T06:50:08.156Z,14.27
2022-11-14T06:52:54.923Z,15.33
2022-11-14T06:55:41.331Z,13.47
2022-11-14T06:58:29.774Z,15.27
2022-11-14T07:01:18.656Z,16.37
2022-11-14T07:04:05.613Z,15.47
2022-11-14T07:06:53.546Z,16.57
2022-11-14T07:09:40.691Z,16.40
2022-11-14T07:12:29.192Z,17.43
2022-11-14T07:15:15.956Z,16.57
2022-11-14T07:18:02.819Z,18.30
2022-11-14T07:20:50.201Z,16.00
2022-11-14T07:23:38.318Z,16.40
2022-11-14T07:26:25.738Z,17.10
2022-11-14T07:29:12.706Z,15.80
2022-11-14T07:31:59.363Z,14.80
2022-11-14T07:34:46.065Z,16.77
2022-11-14T07:37:32.996Z,15.23
2022-11-14T07:40:21.270Z,17.30
2022-11-14T07:43:08.078Z,16.70
2022-11-14T07:45:55.170Z,18.17
2022-11-14T07:48:42.219Z,19.40
2022-11-14T07:51:29.106Z,18.20
2022-11-14T07:54:15.839Z,16.13
2022-11-14T07:57:04.078Z,15.30
2022-11-14T07:59:51.003Z,15.60
2022-11-14T08:02:37.797Z,16.87
2022-11-14T08:05:24.634Z,16.30
2022-11-14T08:08:11.349Z,16.97
2022-11-14T08:10:58.835Z,16.47
2022-11-14T08:13:47.066Z,14.63
2022-11-14T08:16:34.222Z,14.27
2022-11-14T08:19:20.646Z,14.07
2022-11-14T08:22:08.441Z,12.43
2022-11-14T08:24:55.322Z,15.30
2022-11-14T08:27:42.025Z,14.43
2022-11-14T08:30:30.917Z,16.80
2022-11-14T08:33:17.765Z,15.37
2022-11-14T08:36:07.387Z,14.70
2022-11-14T08:38:57.531Z,13.87
2022-11-14T08:41:47.325Z,13.30
2022-11-14T08:44:34.060Z,13.13
2022-11-14T08:47:22.254Z,13.50
2022-11-14T08:50:10.006Z,14.00
2022-11-14T08:52:56.762Z,11.43
2022-11-14T08:55:45.414Z,11.63
2022-11-14T08:58:33.602Z,12.77
2022-11-14T09:01:21.646Z,12.33
2022-11-14T09:04:10.203Z,11.87
2022-11-14T09:06:56.869Z,12.23
2022-11-14T09:09:43.913Z,12.10
2022-11-14T09:12:30.929Z,11.73
2022-11-14T09:15:18.175Z,11.17
2022-11-14T09:18:05.036Z,14.47
2022-11-14T09:20:53.399Z,16.00
2022-11-14T09:23:40.390Z,16.20
2022-11-14T09:26:27.285Z,16.10
2022-11-14T09:29:14.245Z,14.10
2022-11-14T09:32:01.014Z,14.20
2022-11-14T09:34:48.283Z,14.77
2022-11-14T09:37:36.422Z,14.00
2022-11-14T09:40:23.134Z,13.23
2022-11-14T09:43:34.925Z,12.40
2022-11-14T09:46:25.130Z,11.80
2022-11-14T09:49:24.554Z,12.90
2022-11-14T09:52:21.082Z,13.17
2022-11-14T09:55:15.577Z,12.30
2022-11-14T09:58:04.270Z,11.67
2022-11-14T10:00:55.835Z,12.70
2022-11-14T10:03:51.125Z,12.67
2022-11-14T10:06:44.899Z,10.83
2022-11-14T10:09:50.109Z,12.23
2022-11-14T10:12:47.842Z,12.77
2022-11-14T10:15:42.203Z,12.77
2022-11-14T10:18:52.590Z,13.10
2022-11-14T10:21:51.762Z,13.17
2022-11-14T10:24:51.641Z,14.70
2022-11-14T10:27:51.229Z,15.10
2022-11-14T10:30:46.550Z,13.70
2022-11-14T10:33:43.627Z,14.60
2022-11-14T10:36:50.249Z,12.93
2022-11-14T10:39:42.814Z,13.90
2022-11-14T10:42:36.770Z,13.77
2022-11-14T10:45:28.502Z,14.03
2022-11-14T10:48:21.139Z,15.30
2022-11-14T10:51:12.951Z,16.20
2022-11-14T10:54:05.646Z,16.43
2022-11-14T10:56:54.168Z,13.80
2022-11-14T10:59:40.919Z,13.50
2022-11-14T11:02:49.247Z,13.00
2022-11-14T11:05:50.439Z,12.13
2022-11-14T11:09:00.224Z,12.10
2022-11-14T11:11:57.491Z,13.70
2022-11-14T11:14:46.229Z,15.53
2022-11-14T11:17:38.796Z,15.03
2022-11-14T11:20:32.320Z,14.37
2022-11-14T11:23:23.051Z,11.67
2022-11-14T11:26:19.102Z,12.80
2022-11-14T11:29:09.009Z,13.10
2022-11-14T11:31:58.914Z,14.00
2022-11-14T11:34:47.414Z,13.30
2022-11-14T11:37:40.163Z,13.50
2022-11-14T11:40:29.573Z,13.43
2022-11-14T11:43:38.453Z,12.60
2022-11-14T11:46:31.492Z,12.23
2022-11-14T11:49:25.017Z,12.60
2022-11-14T11:52:21.065Z,12.73
2022-11-14T11:55:18.720Z,11.30
2022-11-14T11:58:12.754Z,12.20
2022-11-14T12:00:59.984Z,13.03
2022-11-14T12:03:50.303Z,13.90
2022-11-14T12:06:43.272Z,12.83
2022-11-14T12:10:08.864Z,13.10
2022-11-14T12:13:21.518Z,12.20
2022-11-14T12:16:22.333Z,14.13
2022-11-14T12:19:47.429Z,11.57
2022-11-14T12:23:09.373Z,11.60
2022-11-14T12:26:14.592Z,13.00
2022-11-14T12:29:22.577Z,9.90
2022-11-14T12:32:16.933Z,6.20
2022-11-14T12:35:09.227Z,6.47
2022-11-14T12:37:58.595Z,4.93
2022-11-14T12:40:51.972Z,4.70
2022-11-14T12:43:43.546Z,5.10
2022-11-14T12:47:11.475Z,4.67
2022-11-14T12:50:01.335Z,4.40
2022-11-14T12:52:49.876Z,4.77
2022-11-14T12:56:18.099Z,4.90
2022-11-14T12:59:19.435Z,5.13
2022-11-14T13:02:40.659Z,4.17
2022-11-14T13:05:46.891Z,4.77
2022-11-14T13:09:18.610Z,3.80
2022-11-14T13:12:46.454Z,3.50
2022-11-14T13:15:56.944Z,3.90
2022-11-14T13:19:13.237Z,3.60
2022-11-14T13:22:40.732Z,3.80
2022-11-14T13:25:27.863Z,3.30
2022-11-14T13:28:46.527Z,3.43
2022-11-14T13:31:52.885Z,3.20
2022-11-14T13:34:54.105Z,3.17
2022-11-14T13:38:01.143Z,3.20
2022-11-14T13:40:56.362Z,3.47
2022-11-14T13:43:58.811Z,5.57
2022-11-14T13:47:14.422Z,3.60
2022-11-14T13:50:06.946Z,2.93
2022-11-14T13:52:54.402Z,2.73
2022-11-14T13:55:55.457Z,3.10
2022-11-14T13:59:01.182Z,3.40
2022-11-14T14:02:03.513Z,3.33
2022-11-14T14:05:04.184Z,3.33
2022-11-14T14:08:12.787Z,3.00
2022-11-14T14:11:19.591Z,3.10
2022-11-14T14:14:21.727Z,2.90
2022-11-14T14:17:15.526Z,3.20
2022-11-14T14:20:18.575Z,3.87
2022-11-14T14:23:19.756Z,3.00
2022-11-14T14:26:26.002Z,3.37
2022-11-14T14:29:24.281Z,3.10
2022-11-14T14:32:14.301Z,4.03
2022-11-14T14:35:01.016Z,2.97
2022-11-14T14:37:53.289Z,3.47
2022-11-14T14:40:42.495Z,2.63
2022-11-14T14:43:33.363Z,2.93
2022-11-14T14:46:29.272Z,2.50
2022-11-14T14:49:21.440Z,3.20
2022-11-14T14:52:22.983Z,3.20
2022-11-14T14:55:22.608Z,2.80
2022-11-14T14:58:22.214Z,2.63
2022-11-14T15:01:13.325Z,2.83
2022-11-14T15:04:05.343Z,3.20
2022-11-14T15:06:52.702Z,2.70
2022-11-14T15:09:39.546Z,2.83
2022-11-14T15:12:31.005Z,2.90
2022-11-14T15:15:20.295Z,2.80
2022-11-14T15:18:10.035Z,3.70
2022-11-14T15:21:11.002Z,3.53
2022-11-14T15:24:03.367Z,3.43
2022-11-14T15:26:51.306Z,3.77
2022-11-14T15:29:46.872Z,2.27
2022-11-14T15:32:34.315Z,3.30
2022-11-14T15:35:30.562Z,2.67
2022-11-14T15:38:43.200Z,2.90
2022-11-14T15:41:29.804Z,2.67
2022-11-14T15:44:31.048Z,3.23
2022-11-14T15:47:24.568Z,4.83
2022-11-14T15:50:29.951Z,2.67
2022-11-14T15:53:23.811Z,2.90
2022-11-14T15:56:12.912Z,3.43
2022-11-14T15:59:00.201Z,2.77
2022-11-14T16:01:50.018Z,3.87
2022-11-14T16:04:41.824Z,2.80
2022-11-14T16:07:33.166Z,4.83
2022-11-14T16:10:21.936Z,3.40
2022-11-14T16:13:11.305Z,4.00
2022-11-14T16:15:58.297Z,4.30
2022-11-14T16:18:45.990Z,3.10
2022-11-14T16:21:34.620Z,9.27
2022-11-14T16:24:23.931Z,8.17
2022-11-14T16:27:11.379Z,9.73
2022-11-14T16:29:58.528Z,6.73
2022-11-14T16:32:47.398Z,3.73
2022-11-14T16:35:34.900Z,3.23
2022-11-14T16:38:23.556Z,2.93
2022-11-14T16:41:14.500Z,2.87
2022-11-14T16:44:01.361Z,2.60
2022-11-14T16:46:48.561Z,2.73
2022-11-14T16:49:35.185Z,2.50
2022-11-14T16:52:22.493Z,3.60
2022-11-14T16:55:12.162Z,2.57
2022-11-14T16:57:58.925Z,3.40
2022-11-14T17:00:45.578Z,3.23
2022-11-14T17:03:33.267Z,3.20
2022-11-14T17:06:20.632Z,2.87
2022-11-14T17:09:07.596Z,3.50
2022-11-14T17:11:56.050Z,3.50
2022-11-14T17:14:42.900Z,2.40
2022-11-14T17:17:29.952Z,2.80
2022-11-14T17:20:17.494Z,2.27
2022-11-14T17:23:04.396Z,2.40
2022-11-14T17:25:51.334Z,2.70
2022-11-14T17:28:40.490Z,2.60
2022-11-14T17:31:27.365Z,2.90
2022-11-14T17:34:14.393Z,3.00
2022-11-14T17:37:01.153Z,3.03
2022-11-14T17:39:48.326Z,2.53
2022-11-14T17:42:35.462Z,2.40
2022-11-14T17:45:23.788Z,2.50
2022-11-14T17:48:10.437Z,2.60
2022-11-14T17:50:57.689Z,3.07
2022-11-14T17:53:45.247Z,2.97
2022-11-14T17:56:32.181Z,3.70
2022-11-14T17:59:20.446Z,3.10
2022-11-14T18:02:12.883Z,3.60
2022-11-14T18:04:59.644Z,2.70
2022-11-14T18:07:46.405Z,2.50
2022-11-14T18:10:33.422Z,3.10
2022-11-14T18:13:20.367Z,2.50
2022-11-14T18:16:10.546Z,3.43
2022-11-14T18:18:59.297Z,2.53
2022-11-14T18:21:52.025Z,2.90
2022-11-14T18:24:46.733Z,3.07
2022-11-14T18:27:34.169Z,3.20
2022-11-14T18:30:40.377Z,2.53
2022-11-14T18:33:28.293Z,2.47
2022-11-14T18:36:17.140Z,2.90
2022-11-14T18:39:04.581Z,2.80
2022-11-14T18:41:51.376Z,3.33
2022-11-14T18:44:38.418Z,3.00
2022-11-14T18:47:25.439Z,3.10
2022-11-14T18:50:12.137Z,3.10
2022-11-14T18:53:00.829Z,3.53
2022-11-14T18:55:47.765Z,3.03
2022-11-14T18:58:36.071Z,3.80
2022-11-14T19:01:26.232Z,3.03
2022-11-14T19:04:13.490Z,2.70
2022-11-14T19:07:01.161Z,3.00
2022-11-14T19:09:49.171Z,2.83
2022-11-14T19:12:35.857Z,2.40
2022-11-14T19:15:22.882Z,2.53
2022-11-14T19:18:10.249Z,2.47
2022-11-14T19:20:58.257Z,2.60
2022-11-14T19:23:45.526Z,2.43
2022-11-14T19:26:34.142Z,3.13
2022-11-14T19:29:21.203Z,2.17
2022-11-14T19:32:08.886Z,2.60
2022-11-14T19:34:55.847Z,2.90
2022-11-14T19:37:42.435Z,2.50
2022-11-14T19:40:30.022Z,1.93
2022-11-14T19:43:18.970Z,3.00
2022-11-14T19:46:07.426Z,2.47
2022-11-14T19:48:57.183Z,2.77
2022-11-14T19:51:44.228Z,3.87
2022-11-14T19:54:31.318Z,4.90
2022-11-14T19:57:18.556Z,5.60
2022-11-14T20:00:08.157Z,3.33
2022-11-14T20:02:55.271Z,3.17
2022-11-14T20:05:41.822Z,3.00
2022-11-14T20:08:29.008Z,2.90
2022-11-14T20:11:15.668Z,3.93
2022-11-14T20:14:02.889Z,2.90
2022-11-14T20:16:51.445Z,3.43
2022-11-14T20:19:38.142Z,3.67
2022-11-14T20:22:24.975Z,3.50
2022-11-14T20:25:15.660Z,3.70
2022-11-14T20:28:02.669Z,3.30
2022-11-14T20:30:49.548Z,3.20
2022-11-14T20:33:41.309Z,2.67
2022-11-14T20:36:38.956Z,2.50
2022-11-14T20:39:30.737Z,2.20
2022-11-14T20:42:17.997Z,2.23
2022-11-14T20:45:05.437Z,2.67
2022-11-14T20:47:52.245Z,2.83
2022-11-14T20:50:40.629Z,3.20
2022-11-14T20:53:28.658Z,2.60
2022-11-14T20:56:17.251Z,2.50
2022-11-14T20:59:04.156Z,2.90
2022-11-14T21:01:51.128Z,4.03
2022-11-14T21:04:38.259Z,3.70
2022-11-14T21:07:26.431Z,3.00
2022-11-14T21:10:30.460Z,2.57
2022-11-14T21:13:36.276Z,2.50
2022-11-14T21:16:24.349Z,2.30
2022-11-14T21:19:11.338Z,2.80
2022-11-14T21:21:58.266Z,2.27
2022-11-14T21:24:46.646Z,2.50
2022-11-14T21:27:33.871Z,2.97
2022-11-14T21:30:20.743Z,2.57
2022-11-14T21:33:08.012Z,2.20
2022-11-14T21:35:54.957Z,2.63
2022-11-14T21:38:41.860Z,1.97
2022-11-14T21:41:31.485Z,2.30
2022-11-14T21:44:19.397Z,3.00
2022-11-14T21:47:06.209Z,2.70
2022-11-14T21:50:00.747Z,2.33
2022-11-14T21:52:48.581Z,2.67
2022-11-14T21:55:35.491Z,3.20
2022-11-14T21:58:23.821Z,2.90
2022-11-14T22:01:13.028Z,2.53
2022-11-14T22:04:13.704Z,2.77
2022-11-14T22:07:02.316Z,2.50
2022-11-14T22:09:49.334Z,2.70
2022-11-14T22:12:36.248Z,2.90
2022-11-14T22:15:24.314Z,2.57
2022-11-14T22:18:11.189Z,2.87
2022-11-14T22:20:59.764Z,2.30
2022-11-14T22:23:46.628Z,3.37
2022-11-14T22:26:35.490Z,3.17
2022-11-14T22:29:22.394Z,2.97
2022-11-14T22:32:10.585Z,2.10
2022-11-14T22:34:57.479Z,2.33
2022-11-14T22:37:44.568Z,2.93
2022-11-14T22:40:31.326Z,3.00
2022-11-14T22:43:22.341Z,2.27
2022-11-14T22:46:11.599Z,2.30
2022-11-14T22:49:00.162Z,2.63
2022-11-14T22:51:47.185Z,1.83
2022-11-14T22:54:34.067Z,2.70
2022-11-14T22:57:21.141Z,1.90
2022-11-14T23:00:09.755Z,2.10
2022-11-14T23:02:56.382Z,2.00
2022-11-14T23:05:44.837Z,2.50
2022-11-14T23:08:31.930Z,2.97
2022-11-14T23:11:20.618Z,2.50
2022-11-14T23:14:07.329Z,2.50
2022-11-14T23:16:54.225Z,2.70
2022-11-14T23:19:40.922Z,1.87
2022-11-14T23:22:29.206Z,2.40
2022-11-14T23:25:16.266Z,1.80
2022-11-14T23:28:03.053Z,2.20
2022-11-14T23:30:49.777Z,2.40
2022-11-14T23:33:36.606Z,1.93
2022-11-14T23:36:23.554Z,2.30
2022-11-14T23:39:11.976Z,2.53
2022-11-14T23:41:58.782Z,1.70
2022-11-14T23:44:45.710Z,2.50
2022-11-14T23:47:32.653Z,2.60
2022-11-14T23:50:19.696Z,2.07
2022-11-14T23:53:06.634Z,2.33
2022-11-14T23:55:56.636Z,2.10
2022-11-14T23:58:43.869Z,2.17
